sensor_id;sensor_type;location;lat;lon;timestamp;pressure;altitude;pressure_sealevel;temperature;humidity
41044;BME280;51680;49.806;18.774;2023-09-19T00:02:54;96684.59;;;22.57;67.28
41044;BME280;51680;49.806;18.774;2023-09-19T00:05:58;96689.41;;;22.68;66.61
41044;BME280;51680;49.806;18.774;2023-09-19T00:09:00;96693.31;;;22.72;66.86
41044;BME280;51680;49.806;18.774;2023-09-19T00:12:06;96699.16;;;22.82;66.87
41044;BME280;51680;49.806;18.774;2023-09-19T00:15:09;96697.59;;;22.87;66.67
41044;BME280;51680;49.806;18.774;2023-09-19T00:18:12;96685.72;;;22.90;66.91
41044;BME280;51680;49.806;18.774;2023-09-19T00:21:16;96684.59;;;22.99;66.87
41044;BME280;51680;49.806;18.774;2023-09-19T00:24:17;96688.94;;;23.06;67.22
41044;BME280;51680;49.806;18.774;2023-09-19T00:27:20;96689.00;;;23.13;67.13
41044;BME280;51680;49.806;18.774;2023-09-19T00:30:22;96680.69;;;23.22;67.13
41044;BME280;51680;49.806;18.774;2023-09-19T00:33:24;96678.28;;;23.27;66.58
41044;BME280;51680;49.806;18.774;2023-09-19T00:36:26;96674.63;;;23.35;67.36
41044;BME280;51680;49.806;18.774;2023-09-19T00:39:29;96676.44;;;23.28;67.19
41044;BME280;51680;49.806;18.774;2023-09-19T00:42:33;96671.16;;;23.34;67.04
41044;BME280;51680;49.806;18.774;2023-09-19T00:45:36;96677.94;;;23.37;66.83
41044;BME280;51680;49.806;18.774;2023-09-19T00:48:40;96671.41;;;23.39;67.77
41044;BME280;51680;49.806;18.774;2023-09-19T00:51:44;96671.47;;;23.46;68.15
41044;BME280;51680;49.806;18.774;2023-09-19T00:54:47;96672.69;;;23.50;68.01
41044;BME280;51680;49.806;18.774;2023-09-19T00:57:51;96665.28;;;23.45;67.78
41044;BME280;51680;49.806;18.774;2023-09-19T01:00:53;96663.13;;;23.28;68.86
41044;BME280;51680;49.806;18.774;2023-09-19T01:03:55;96666.81;;;23.27;68.39
41044;BME280;51680;49.806;18.774;2023-09-19T01:06:56;96665.63;;;23.36;68.35
41044;BME280;51680;49.806;18.774;2023-09-19T01:09:59;96653.13;;;23.36;68.27
41044;BME280;51680;49.806;18.774;2023-09-19T01:13:10;96653.50;;;23.33;68.31
41044;BME280;51680;49.806;18.774;2023-09-19T01:16:19;96649.91;;;23.41;67.79
41044;BME280;51680;49.806;18.774;2023-09-19T01:23:11;96643.56;;;23.42;68.20
41044;BME280;51680;49.806;18.774;2023-09-19T01:26:25;96633.50;;;23.44;68.15
41044;BME280;51680;49.806;18.774;2023-09-19T01:29:38;96624.66;;;23.37;68.32
41044;BME280;51680;49.806;18.774;2023-09-19T01:32:42;96629.59;;;23.40;67.72
41044;BME280;51680;49.806;18.774;2023-09-19T01:35:44;96636.06;;;23.31;68.43
41044;BME280;51680;49.806;18.774;2023-09-19T01:38:46;96632.09;;;23.48;67.62
41044;BME280;51680;49.806;18.774;2023-09-19T01:41:56;96637.19;;;23.43;68.00
41044;BME280;51680;49.806;18.774;2023-09-19T01:45:06;96635.38;;;23.50;67.59
41044;BME280;51680;49.806;18.774;2023-09-19T01:48:19;96634.38;;;23.51;67.65
41044;BME280;51680;49.806;18.774;2023-09-19T01:51:29;96647.72;;;23.51;67.81
41044;BME280;51680;49.806;18.774;2023-09-19T01:54:39;96648.94;;;23.55;67.46
41044;BME280;51680;49.806;18.774;2023-09-19T01:57:49;96652.84;;;23.59;67.46
41044;BME280;51680;49.806;18.774;2023-09-19T02:00:54;96650.66;;;23.62;66.97
41044;BME280;51680;49.806;18.774;2023-09-19T02:03:59;96655.38;;;23.67;67.15
41044;BME280;51680;49.806;18.774;2023-09-19T02:07:00;96654.78;;;23.71;67.15
41044;BME280;51680;49.806;18.774;2023-09-19T02:10:03;96649.72;;;23.83;67.06
41044;BME280;51680;49.806;18.774;2023-09-19T02:13:06;96658.41;;;23.91;67.33
41044;BME280;51680;49.806;18.774;2023-09-19T02:16:09;96655.75;;;23.98;68.04
41044;BME280;51680;49.806;18.774;2023-09-19T02:19:12;96652.69;;;24.01;68.72
41044;BME280;51680;49.806;18.774;2023-09-19T02:22:14;96650.66;;;24.03;68.67
41044;BME280;51680;49.806;18.774;2023-09-19T02:25:16;96651.25;;;23.98;69.55
41044;BME280;51680;49.806;18.774;2023-09-19T02:28:19;96650.41;;;23.91;69.92
41044;BME280;51680;49.806;18.774;2023-09-19T02:31:21;96650.97;;;23.87;70.20
41044;BME280;51680;49.806;18.774;2023-09-19T02:34:24;96636.38;;;23.83;70.85
41044;BME280;51680;49.806;18.774;2023-09-19T02:37:26;96647.19;;;23.68;70.89
41044;BME280;51680;49.806;18.774;2023-09-19T02:40:27;96641.91;;;23.41;71.66
41044;BME280;51680;49.806;18.774;2023-09-19T02:43:30;96640.31;;;23.19;73.24
41044;BME280;51680;49.806;18.774;2023-09-19T02:46:31;96635.28;;;23.09;74.01
41044;BME280;51680;49.806;18.774;2023-09-19T02:49:34;96638.22;;;22.93;74.52
41044;BME280;51680;49.806;18.774;2023-09-19T02:52:36;96627.38;;;22.67;76.12
41044;BME280;51680;49.806;18.774;2023-09-19T02:55:38;96630.34;;;22.58;76.49
41044;BME280;51680;49.806;18.774;2023-09-19T02:58:40;96635.59;;;22.51;77.27
41044;BME280;51680;49.806;18.774;2023-09-19T03:01:43;96631.78;;;22.39;78.48
41044;BME280;51680;49.806;18.774;2023-09-19T03:04:49;96626.63;;;22.17;80.82
41044;BME280;51680;49.806;18.774;2023-09-19T03:07:51;96611.66;;;21.51;84.18
41044;BME280;51680;49.806;18.774;2023-09-19T03:10:54;96622.94;;;21.10;86.77
41044;BME280;51680;49.806;18.774;2023-09-19T03:13:56;96619.88;;;20.98;87.94
41044;BME280;51680;49.806;18.774;2023-09-19T03:16:59;96613.88;;;20.82;89.43
41044;BME280;51680;49.806;18.774;2023-09-19T03:20:03;96620.97;;;20.67;91.75
41044;BME280;51680;49.806;18.774;2023-09-19T03:23:08;96623.94;;;20.49;93.50
41044;BME280;51680;49.806;18.774;2023-09-19T03:26:11;96608.09;;;20.41;94.03
41044;BME280;51680;49.806;18.774;2023-09-19T03:29:15;96614.19;;;20.50;93.08
41044;BME280;51680;49.806;18.774;2023-09-19T03:32:19;96608.44;;;20.61;92.18
41044;BME280;51680;49.806;18.774;2023-09-19T03:35:22;96611.66;;;20.71;91.80
41044;BME280;51680;49.806;18.774;2023-09-19T03:38:24;96608.56;;;20.82;91.18
41044;BME280;51680;49.806;18.774;2023-09-19T03:41:44;96617.78;;;20.94;89.90
41044;BME280;51680;49.806;18.774;2023-09-19T03:44:46;96620.56;;;21.15;89.09
41044;BME280;51680;49.806;18.774;2023-09-19T03:48:08;96624.78;;;21.38;88.35
41044;BME280;51680;49.806;18.774;2023-09-19T03:51:11;96626.06;;;21.57;87.67
41044;BME280;51680;49.806;18.774;2023-09-19T03:54:13;96626.91;;;21.72;86.93
41044;BME280;51680;49.806;18.774;2023-09-19T03:57:15;96640.97;;;21.87;86.73
41044;BME280;51680;49.806;18.774;2023-09-19T04:00:21;96642.53;;;21.96;86.21
41044;BME280;51680;49.806;18.774;2023-09-19T04:03:24;96644.25;;;22.03;85.78
41044;BME280;51680;49.806;18.774;2023-09-19T04:06:36;96636.19;;;22.11;85.65
41044;BME280;51680;49.806;18.774;2023-09-19T04:09:38;96638.66;;;22.13;85.45
41044;BME280;51680;49.806;18.774;2023-09-19T04:12:40;96640.47;;;22.12;85.62
41044;BME280;51680;49.806;18.774;2023-09-19T04:15:42;96634.97;;;22.14;85.54
41044;BME280;51680;49.806;18.774;2023-09-19T04:18:43;96632.81;;;22.03;86.25
41044;BME280;51680;49.806;18.774;2023-09-19T04:21:46;96629.72;;;21.85;86.77
41044;BME280;51680;49.806;18.774;2023-09-19T04:24:48;96630.84;;;21.76;87.03
41044;BME280;51680;49.806;18.774;2023-09-19T04:27:50;96633.31;;;21.77;87.10
41044;BME280;51680;49.806;18.774;2023-09-19T04:30:51;96642.00;;;21.86;86.63
41044;BME280;51680;49.806;18.774;2023-09-19T04:33:53;96639.25;;;21.94;86.31
41044;BME280;51680;49.806;18.774;2023-09-19T04:36:56;96639.94;;;22.02;86.13
41044;BME280;51680;49.806;18.774;2023-09-19T04:39:58;96648.00;;;22.09;85.89
41044;BME280;51680;49.806;18.774;2023-09-19T04:43:00;96648.91;;;22.16;85.73
41044;BME280;51680;49.806;18.774;2023-09-19T04:46:03;96652.66;;;22.21;85.47
41044;BME280;51680;49.806;18.774;2023-09-19T04:49:06;96653.94;;;22.25;85.42
41044;BME280;51680;49.806;18.774;2023-09-19T04:52:09;96649.41;;;22.26;85.89
41044;BME280;51680;49.806;18.774;2023-09-19T04:55:12;96652.97;;;22.12;86.42
41044;BME280;51680;49.806;18.774;2023-09-19T04:58:16;96659.41;;;22.03;87.03
41044;BME280;51680;49.806;18.774;2023-09-19T05:01:18;96659.50;;;21.95;86.86
41044;BME280;51680;49.806;18.774;2023-09-19T05:04:23;96654.75;;;21.90;87.07
41044;BME280;51680;49.806;18.774;2023-09-19T05:07:26;96673.91;;;21.86;87.39
41044;BME280;51680;49.806;18.774;2023-09-19T05:10:27;96674.28;;;21.83;87.53
41044;BME280;51680;49.806;18.774;2023-09-19T05:13:29;96678.94;;;21.81;87.74
41044;BME280;51680;49.806;18.774;2023-09-19T05:16:31;96686.72;;;21.82;87.79
41044;BME280;51680;49.806;18.774;2023-09-19T05:19:33;96691.13;;;21.90;87.40
41044;BME280;51680;49.806;18.774;2023-09-19T05:22:37;96677.66;;;21.91;87.57
41044;BME280;51680;49.806;18.774;2023-09-19T05:25:40;96700.22;;;21.95;87.40
41044;BME280;51680;49.806;18.774;2023-09-19T05:28:43;96703.50;;;21.97;87.29
41044;BME280;51680;49.806;18.774;2023-09-19T05:31:45;96700.66;;;21.99;87.47
41044;BME280;51680;49.806;18.774;2023-09-19T05:34:47;96697.72;;;21.94;87.89
41044;BME280;51680;49.806;18.774;2023-09-19T05:37:51;96715.88;;;21.90;87.97
41044;BME280;51680;49.806;18.774;2023-09-19T05:40:53;96714.03;;;21.91;87.97
41044;BME280;51680;49.806;18.774;2023-09-19T05:43:55;96720.19;;;21.91;88.04
41044;BME280;51680;49.806;18.774;2023-09-19T05:46:56;96726.78;;;21.95;87.99
41044;BME280;51680;49.806;18.774;2023-09-19T05:49:58;96725.78;;;21.96;87.85
41044;BME280;51680;49.806;18.774;2023-09-19T05:53:02;96727.97;;;21.93;87.56
41044;BME280;51680;49.806;18.774;2023-09-19T05:56:05;96730.72;;;21.85;87.22
41044;BME280;51680;49.806;18.774;2023-09-19T05:59:06;96723.84;;;21.76;86.34
41044;BME280;51680;49.806;18.774;2023-09-19T06:02:08;96740.56;;;21.62;85.87
41044;BME280;51680;49.806;18.774;2023-09-19T06:05:11;96749.63;;;21.53;85.88
41044;BME280;51680;49.806;18.774;2023-09-19T06:08:15;96754.84;;;21.46;85.66
41044;BME280;51680;49.806;18.774;2023-09-19T06:11:17;96753.09;;;21.39;85.92
41044;BME280;51680;49.806;18.774;2023-09-19T06:14:20;96760.59;;;21.35;86.27
41044;BME280;51680;49.806;18.774;2023-09-19T06:17:24;96777.47;;;21.20;88.14
41044;BME280;51680;49.806;18.774;2023-09-19T06:20:28;96775.84;;;21.19;86.26
41044;BME280;51680;49.806;18.774;2023-09-19T06:23:32;96777.13;;;21.23;86.63
41044;BME280;51680;49.806;18.774;2023-09-19T06:26:53;96794.88;;;21.22;86.14
41044;BME280;51680;49.806;18.774;2023-09-19T06:29:55;96796.28;;;21.18;86.58
41044;BME280;51680;49.806;18.774;2023-09-19T06:32:57;96812.06;;;21.12;86.83
41044;BME280;51680;49.806;18.774;2023-09-19T06:35:59;96805.09;;;21.11;86.95
41044;BME280;51680;49.806;18.774;2023-09-19T06:39:02;96818.56;;;21.09;87.09
41044;BME280;51680;49.806;18.774;2023-09-19T06:42:04;96819.44;;;21.02;87.44
41044;BME280;51680;49.806;18.774;2023-09-19T06:45:07;96825.09;;;20.99;87.80
41044;BME280;51680;49.806;18.774;2023-09-19T06:48:11;96834.09;;;20.90;88.35
41044;BME280;51680;49.806;18.774;2023-09-19T06:51:31;96829.47;;;20.84;88.40
41044;BME280;51680;49.806;18.774;2023-09-19T06:54:36;96838.78;;;20.80;88.67
41044;BME280;51680;49.806;18.774;2023-09-19T06:57:37;96847.38;;;20.90;88.19
41044;BME280;51680;49.806;18.774;2023-09-19T07:00:40;96854.41;;;21.05;87.95
41044;BME280;51680;49.806;18.774;2023-09-19T07:03:42;96861.97;;;21.16;87.44
41044;BME280;51680;49.806;18.774;2023-09-19T07:06:49;96863.41;;;21.27;87.39
41044;BME280;51680;49.806;18.774;2023-09-19T07:09:52;96869.31;;;21.37;87.07
41044;BME280;51680;49.806;18.774;2023-09-19T07:12:55;96865.59;;;21.46;86.93
41044;BME280;51680;49.806;18.774;2023-09-19T07:15:58;96872.84;;;21.52;87.19
41044;BME280;51680;49.806;18.774;2023-09-19T07:19:00;96876.63;;;21.57;87.25
41044;BME280;51680;49.806;18.774;2023-09-19T07:22:20;96875.06;;;21.63;87.37
41044;BME280;51680;49.806;18.774;2023-09-19T07:25:25;96877.53;;;21.64;87.49
41044;BME280;51680;49.806;18.774;2023-09-19T07:28:29;96879.06;;;21.59;87.56
41044;BME280;51680;49.806;18.774;2023-09-19T07:31:30;96888.91;;;21.58;87.30
41044;BME280;51680;49.806;18.774;2023-09-19T07:34:32;96890.81;;;21.50;87.10
41044;BME280;51680;49.806;18.774;2023-09-19T07:37:34;96898.69;;;21.35;87.38
41044;BME280;51680;49.806;18.774;2023-09-19T07:40:37;96901.88;;;21.31;87.42
41044;BME280;51680;49.806;18.774;2023-09-19T07:43:40;96911.22;;;21.27;87.39
41044;BME280;51680;49.806;18.774;2023-09-19T07:46:41;96912.84;;;21.28;87.29
41044;BME280;51680;49.806;18.774;2023-09-19T07:49:47;96917.31;;;21.27;87.00
41044;BME280;51680;49.806;18.774;2023-09-19T07:52:50;96922.00;;;21.25;86.94
41044;BME280;51680;49.806;18.774;2023-09-19T07:56:01;96927.94;;;21.27;87.05
41044;BME280;51680;49.806;18.774;2023-09-19T07:59:04;96936.13;;;21.26;86.94
41044;BME280;51680;49.806;18.774;2023-09-19T08:02:06;96932.97;;;21.22;86.89
41044;BME280;51680;49.806;18.774;2023-09-19T08:05:11;96933.97;;;21.21;87.31
41044;BME280;51680;49.806;18.774;2023-09-19T08:08:15;96930.84;;;21.18;87.44
41044;BME280;51680;49.806;18.774;2023-09-19T08:11:18;96941.59;;;21.24;87.17
41044;BME280;51680;49.806;18.774;2023-09-19T08:14:21;96944.09;;;21.26;86.97
41044;BME280;51680;49.806;18.774;2023-09-19T08:17:25;96939.06;;;21.31;87.04
41044;BME280;51680;49.806;18.774;2023-09-19T08:20:27;96955.09;;;21.37;86.74
41044;BME280;51680;49.806;18.774;2023-09-19T08:23:28;96953.63;;;21.35;86.80
41044;BME280;51680;49.806;18.774;2023-09-19T08:26:34;96959.91;;;21.42;86.67
41044;BME280;51680;49.806;18.774;2023-09-19T08:29:38;96961.06;;;21.47;86.63
41044;BME280;51680;49.806;18.774;2023-09-19T08:32:39;96958.09;;;21.42;86.59
41044;BME280;51680;49.806;18.774;2023-09-19T08:35:42;96959.91;;;21.42;86.47
41044;BME280;51680;49.806;18.774;2023-09-19T08:38:45;96965.72;;;21.37;86.66
41044;BME280;51680;49.806;18.774;2023-09-19T08:41:48;96967.88;;;21.42;86.56
41044;BME280;51680;49.806;18.774;2023-09-19T08:44:50;96979.44;;;21.49;86.34
41044;BME280;51680;49.806;18.774;2023-09-19T08:47:59;96977.09;;;21.54;86.55
41044;BME280;51680;49.806;18.774;2023-09-19T08:51:07;96983.03;;;21.64;86.13
41044;BME280;51680;49.806;18.774;2023-09-19T08:54:12;96987.97;;;21.67;86.02
41044;BME280;51680;49.806;18.774;2023-09-19T08:57:24;96988.97;;;21.66;86.07
41044;BME280;51680;49.806;18.774;2023-09-19T09:00:30;96984.00;;;21.71;85.93
41044;BME280;51680;49.806;18.774;2023-09-19T09:03:33;96983.66;;;21.74;86.21
41044;BME280;51680;49.806;18.774;2023-09-19T09:06:35;96994.75;;;21.77;86.21
41044;BME280;51680;49.806;18.774;2023-09-19T09:09:40;96988.25;;;21.80;86.05
41044;BME280;51680;49.806;18.774;2023-09-19T09:12:44;96997.88;;;21.81;86.00
41044;BME280;51680;49.806;18.774;2023-09-19T09:15:46;96994.75;;;21.77;85.91
41044;BME280;51680;49.806;18.774;2023-09-19T09:18:49;97006.19;;;21.78;86.32
41044;BME280;51680;49.806;18.774;2023-09-19T09:21:53;97002.59;;;21.71;86.47
41044;BME280;51680;49.806;18.774;2023-09-19T09:24:55;97002.59;;;21.63;86.61
41044;BME280;51680;49.806;18.774;2023-09-19T09:28:00;96998.72;;;21.51;88.47
41044;BME280;51680;49.806;18.774;2023-09-19T09:31:02;97002.13;;;21.59;86.75
41044;BME280;51680;49.806;18.774;2023-09-19T09:34:08;97005.56;;;21.68;86.92
41044;BME280;51680;49.806;18.774;2023-09-19T09:37:14;97004.91;;;21.74;86.69
41044;BME280;51680;49.806;18.774;2023-09-19T09:40:18;97011.56;;;21.70;87.76
41044;BME280;51680;49.806;18.774;2023-09-19T09:43:36;97011.50;;;21.78;86.18
41044;BME280;51680;49.806;18.774;2023-09-19T09:46:42;97014.88;;;21.72;86.57
41044;BME280;51680;49.806;18.774;2023-09-19T09:49:59;97019.84;;;21.75;86.69
41044;BME280;51680;49.806;18.774;2023-09-19T09:53:20;97021.63;;;21.82;86.51
41044;BME280;51680;49.806;18.774;2023-09-19T09:56:22;97022.13;;;21.78;86.35
41044;BME280;51680;49.806;18.774;2023-09-19T09:59:44;97021.50;;;21.68;86.56
41044;BME280;51680;49.806;18.774;2023-09-19T10:02:47;97017.59;;;21.56;86.75
41044;BME280;51680;49.806;18.774;2023-09-19T10:05:53;97024.28;;;21.52;86.42
41044;BME280;51680;49.806;18.774;2023-09-19T10:09:00;97022.00;;;21.41;86.91
41044;BME280;51680;49.806;18.774;2023-09-19T10:12:12;97026.72;;;21.31;87.40
41044;BME280;51680;49.806;18.774;2023-09-19T10:15:18;97034.38;;;21.26;87.52
41044;BME280;51680;49.806;18.774;2023-09-19T10:18:23;97032.06;;;21.15;87.99
41044;BME280;51680;49.806;18.774;2023-09-19T10:21:26;97033.91;;;21.14;88.09
41044;BME280;51680;49.806;18.774;2023-09-19T10:24:30;97040.72;;;21.09;88.60
41044;BME280;51680;49.806;18.774;2023-09-19T10:27:35;97041.91;;;21.06;88.77
41044;BME280;51680;49.806;18.774;2023-09-19T10:30:41;97046.72;;;21.03;88.97
41044;BME280;51680;49.806;18.774;2023-09-19T10:33:46;97051.56;;;20.99;89.11
41044;BME280;51680;49.806;18.774;2023-09-19T10:36:51;97058.47;;;21.08;88.92
41044;BME280;51680;49.806;18.774;2023-09-19T10:39:54;97051.69;;;21.06;89.22
41044;BME280;51680;49.806;18.774;2023-09-19T10:43:02;97064.59;;;21.17;89.12
41044;BME280;51680;49.806;18.774;2023-09-19T10:46:08;97066.88;;;21.28;88.73
41044;BME280;51680;49.806;18.774;2023-09-19T10:49:12;97067.50;;;21.38;88.50
41044;BME280;51680;49.806;18.774;2023-09-19T10:52:15;97069.50;;;21.36;88.39
41044;BME280;51680;49.806;18.774;2023-09-19T10:55:20;97064.16;;;21.44;88.16
41044;BME280;51680;49.806;18.774;2023-09-19T10:58:26;97067.41;;;21.54;88.01
41044;BME280;51680;49.806;18.774;2023-09-19T11:01:42;97071.34;;;21.66;88.15
41044;BME280;51680;49.806;18.774;2023-09-19T11:04:47;97071.28;;;21.82;87.29
41044;BME280;51680;49.806;18.774;2023-09-19T11:07:56;97072.72;;;21.92;87.13
41044;BME280;51680;49.806;18.774;2023-09-19T11:10:59;97067.66;;;22.05;86.57
41044;BME280;51680;49.806;18.774;2023-09-19T11:14:14;97075.34;;;22.23;86.46
41044;BME280;51680;49.806;18.774;2023-09-19T11:17:42;97079.72;;;22.38;86.01
41044;BME280;51680;49.806;18.774;2023-09-19T11:20:46;97080.91;;;22.36;85.28
41044;BME280;51680;49.806;18.774;2023-09-19T11:27:26;97082.25;;;22.32;85.80
41044;BME280;51680;49.806;18.774;2023-09-19T11:30:49;97087.31;;;22.41;84.99
41044;BME280;51680;49.806;18.774;2023-09-19T11:37:59;97098.13;;;22.85;83.60
41044;BME280;51680;49.806;18.774;2023-09-19T11:41:36;97098.25;;;23.06;82.82
41044;BME280;51680;49.806;18.774;2023-09-19T11:44:38;97095.41;;;23.07;82.92
41044;BME280;51680;49.806;18.774;2023-09-19T11:47:41;97096.53;;;23.13;83.20
41044;BME280;51680;49.806;18.774;2023-09-19T11:50:45;97098.81;;;23.16;82.50
41044;BME280;51680;49.806;18.774;2023-09-19T11:53:48;97105.13;;;23.15;82.11
41044;BME280;51680;49.806;18.774;2023-09-19T11:56:52;97102.53;;;23.29;82.09
41044;BME280;51680;49.806;18.774;2023-09-19T11:59:54;97097.38;;;23.42;81.82
41044;BME280;51680;49.806;18.774;2023-09-19T12:03:09;97100.78;;;23.51;81.81
41044;BME280;51680;49.806;18.774;2023-09-19T12:06:13;97098.91;;;23.66;81.67
41044;BME280;51680;49.806;18.774;2023-09-19T12:09:15;97100.47;;;23.75;81.00
41044;BME280;51680;49.806;18.774;2023-09-19T12:12:19;97090.38;;;24.06;80.34
41044;BME280;51680;49.806;18.774;2023-09-19T12:15:24;97092.56;;;24.17;79.29
41044;BME280;51680;49.806;18.774;2023-09-19T12:18:29;97092.06;;;24.49;79.36
41044;BME280;51680;49.806;18.774;2023-09-19T12:21:33;97092.50;;;24.52;77.87
41044;BME280;51680;49.806;18.774;2023-09-19T12:24:37;97098.31;;;24.56;75.97
41044;BME280;51680;49.806;18.774;2023-09-19T12:28:01;97100.25;;;24.47;77.47
41044;BME280;51680;49.806;18.774;2023-09-19T12:31:06;97089.47;;;24.55;77.36
41044;BME280;51680;49.806;18.774;2023-09-19T12:34:08;97097.03;;;24.52;76.57
41044;BME280;51680;49.806;18.774;2023-09-19T12:37:13;97096.38;;;24.50;76.50
41044;BME280;51680;49.806;18.774;2023-09-19T12:40:22;97092.59;;;24.59;76.76
41044;BME280;51680;49.806;18.774;2023-09-19T12:43:28;97097.94;;;24.59;77.12
41044;BME280;51680;49.806;18.774;2023-09-19T12:46:33;97095.19;;;24.73;76.83
41044;BME280;51680;49.806;18.774;2023-09-19T12:49:34;97092.28;;;24.68;75.56
41044;BME280;51680;49.806;18.774;2023-09-19T12:52:38;97087.38;;;24.72;75.90
41044;BME280;51680;49.806;18.774;2023-09-19T12:55:40;97084.34;;;24.75;74.36
41044;BME280;51680;49.806;18.774;2023-09-19T12:58:51;97087.50;;;24.85;75.01
41044;BME280;51680;49.806;18.774;2023-09-19T13:02:03;97080.53;;;24.90;74.51
41044;BME280;51680;49.806;18.774;2023-09-19T13:05:06;97090.59;;;24.88;74.92
41044;BME280;51680;49.806;18.774;2023-09-19T13:08:20;97098.72;;;25.01;73.79
41044;BME280;51680;49.806;18.774;2023-09-19T13:11:22;97093.78;;;25.05;73.78
41044;BME280;51680;49.806;18.774;2023-09-19T13:14:26;97076.59;;;25.14;73.28
41044;BME280;51680;49.806;18.774;2023-09-19T13:17:42;97079.50;;;25.19;73.04
41044;BME280;51680;49.806;18.774;2023-09-19T13:21:05;97081.53;;;25.17;69.94
41044;BME280;51680;49.806;18.774;2023-09-19T13:24:21;97084.88;;;24.98;71.90
41044;BME280;51680;49.806;18.774;2023-09-19T13:27:28;97088.97;;;24.94;72.82
41044;BME280;51680;49.806;18.774;2023-09-19T13:30:30;97088.72;;;24.89;74.28
41044;BME280;51680;49.806;18.774;2023-09-19T13:33:33;97093.56;;;24.79;74.29
41044;BME280;51680;49.806;18.774;2023-09-19T13:36:35;97081.78;;;24.67;74.53
41044;BME280;51680;49.806;18.774;2023-09-19T13:39:39;97077.84;;;24.63;74.31
41044;BME280;51680;49.806;18.774;2023-09-19T13:42:43;97080.34;;;24.50;74.99
41044;BME280;51680;49.806;18.774;2023-09-19T13:45:45;97081.66;;;24.33;74.63
41044;BME280;51680;49.806;18.774;2023-09-19T13:48:46;97084.88;;;24.28;75.70
41044;BME280;51680;49.806;18.774;2023-09-19T13:51:50;97090.13;;;24.22;75.83
41044;BME280;51680;49.806;18.774;2023-09-19T13:54:53;97088.25;;;24.16;76.05
41044;BME280;51680;49.806;18.774;2023-09-19T13:57:56;97089.38;;;24.07;75.92
41044;BME280;51680;49.806;18.774;2023-09-19T14:00:58;97087.22;;;23.96;76.19
41044;BME280;51680;49.806;18.774;2023-09-19T14:04:01;97090.53;;;23.83;76.32
41044;BME280;51680;49.806;18.774;2023-09-19T14:07:03;97105.81;;;23.75;76.90
41044;BME280;51680;49.806;18.774;2023-09-19T14:10:07;97105.91;;;23.67;77.13
41044;BME280;51680;49.806;18.774;2023-09-19T14:13:09;97090.94;;;23.51;77.17
41044;BME280;51680;49.806;18.774;2023-09-19T14:16:11;97083.59;;;23.24;77.85
41044;BME280;51680;49.806;18.774;2023-09-19T14:19:13;97086.69;;;22.99;78.76
41044;BME280;51680;49.806;18.774;2023-09-19T14:22:16;97090.09;;;22.70;80.22
41044;BME280;51680;49.806;18.774;2023-09-19T14:25:19;97079.16;;;22.51;81.27
41044;BME280;51680;49.806;18.774;2023-09-19T14:28:21;97084.66;;;22.49;81.58
41044;BME280;51680;49.806;18.774;2023-09-19T14:31:25;97078.13;;;22.52;81.40
41044;BME280;51680;49.806;18.774;2023-09-19T14:34:28;97067.31;;;22.53;80.98
41044;BME280;51680;49.806;18.774;2023-09-19T14:37:29;97068.13;;;22.54;80.74
41044;BME280;51680;49.806;18.774;2023-09-19T14:40:33;97076.66;;;22.49;81.31
41044;BME280;51680;49.806;18.774;2023-09-19T14:43:37;97078.97;;;22.52;81.55
41044;BME280;51680;49.806;18.774;2023-09-19T14:46:39;97082.91;;;22.56;81.38
41044;BME280;51680;49.806;18.774;2023-09-19T14:49:41;97086.06;;;22.60;81.71
41044;BME280;51680;49.806;18.774;2023-09-19T14:52:42;97078.06;;;22.60;81.89
41044;BME280;51680;49.806;18.774;2023-09-19T14:55:45;97092.59;;;22.72;82.00
41044;BME280;51680;49.806;18.774;2023-09-19T14:58:48;97086.53;;;22.78;81.72
41044;BME280;51680;49.806;18.774;2023-09-19T15:01:49;97090.16;;;22.85;81.17
41044;BME280;51680;49.806;18.774;2023-09-19T15:04:51;97093.09;;;22.90;81.55
41044;BME280;51680;49.806;18.774;2023-09-19T15:07:53;97091.91;;;23.07;81.01
41044;BME280;51680;49.806;18.774;2023-09-19T15:10:57;97093.31;;;23.03;80.82
41044;BME280;51680;49.806;18.774;2023-09-19T15:14:04;97094.22;;;23.10;80.40
41044;BME280;51680;49.806;18.774;2023-09-19T15:17:05;97106.03;;;22.93;82.27
41044;BME280;51680;49.806;18.774;2023-09-19T15:20:07;97097.06;;;22.94;82.47
41044;BME280;51680;49.806;18.774;2023-09-19T15:23:09;97096.94;;;23.02;82.14
41044;BME280;51680;49.806;18.774;2023-09-19T15:26:15;97091.44;;;23.03;82.26
41044;BME280;51680;49.806;18.774;2023-09-19T15:29:20;97095.09;;;22.88;83.18
41044;BME280;51680;49.806;18.774;2023-09-19T15:32:22;97094.81;;;22.83;83.57
41044;BME280;51680;49.806;18.774;2023-09-19T15:35:24;97097.41;;;22.54;84.20
41044;BME280;51680;49.806;18.774;2023-09-19T15:38:26;97093.81;;;22.47;84.61
41044;BME280;51680;49.806;18.774;2023-09-19T15:41:31;97085.00;;;22.46;84.40
41044;BME280;51680;49.806;18.774;2023-09-19T15:44:33;97084.19;;;22.46;83.76
41044;BME280;51680;49.806;18.774;2023-09-19T15:47:35;97075.13;;;22.55;83.22
41044;BME280;51680;49.806;18.774;2023-09-19T15:50:38;97076.41;;;22.59;81.87
41044;BME280;51680;49.806;18.774;2023-09-19T15:53:43;97079.34;;;22.64;81.53
41044;BME280;51680;49.806;18.774;2023-09-19T15:56:46;97089.31;;;22.84;81.21
41044;BME280;51680;49.806;18.774;2023-09-19T15:59:49;97098.53;;;22.96;80.53
41044;BME280;51680;49.806;18.774;2023-09-19T16:02:51;97095.50;;;23.14;79.83
41044;BME280;51680;49.806;18.774;2023-09-19T16:05:53;97101.88;;;23.27;79.41
41044;BME280;51680;49.806;18.774;2023-09-19T16:08:56;97102.25;;;23.39;78.81
41044;BME280;51680;49.806;18.774;2023-09-19T16:12:00;97109.22;;;23.40;77.62
41044;BME280;51680;49.806;18.774;2023-09-19T16:15:20;97111.72;;;23.41;77.49
41044;BME280;51680;49.806;18.774;2023-09-19T16:18:22;97115.47;;;23.47;77.70